sensor_id;sensor_type;location;lat;lon;timestamp;temperature;humidity
8557;DHT22;4316;53.840;10.762;2024-03-23T00:54:00;7.40;3.40
8557;DHT22;4316;53.840;10.762;2024-03-23T00:56:25;7.40;1.70
8557;DHT22;4316;53.840;10.762;2024-03-23T00:58:51;7.40;2.40
8557;DHT22;4316;53.840;10.762;2024-03-23T01:01:17;7.30;3.40
8557;DHT22;4316;53.840;10.762;2024-03-23T01:03:43;7.30;3.50
8557;DHT22;4316;53.840;10.762;2024-03-23T01:06:08;7.40;4.40
8557;DHT22;4316;53.840;10.762;2024-03-23T01:08:34;7.30;2.00
8557;DHT22;4316;53.840;10.762;2024-03-23T01:11:01;7.20;4.90
8557;DHT22;4316;53.840;10.762;2024-03-23T01:13:28;7.20;5.60
8557;DHT22;4316;53.840;10.762;2024-03-23T01:15:55;7.30;3.20
8557;DHT22;4316;53.840;10.762;2024-03-23T01:18:22;7.20;4.00
8557;DHT22;4316;53.840;10.762;2024-03-23T01:20:48;7.20;3.90
8557;DHT22;4316;53.840;10.762;2024-03-23T01:23:14;7.10;3.70
8557;DHT22;4316;53.840;10.762;2024-03-23T01:25:41;7.10;6.40
8557;DHT22;4316;53.840;10.762;2024-03-23T01:28:07;7.10;6.40
8557;DHT22;4316;53.840;10.762;2024-03-23T01:30:36;7.10;5.80
8557;DHT22;4316;53.840;10.762;2024-03-23T01:33:02;7.10;5.80
8557;DHT22;4316;53.840;10.762;2024-03-23T01:35:30;7.10;8.30
8557;DHT22;4316;53.840;10.762;2024-03-23T01:37:56;7.10;3.50
8557;DHT22;4316;53.840;10.762;2024-03-23T01:40:22;7.10;2.70
8557;DHT22;4316;53.840;10.762;2024-03-23T01:43:04;7.10;4.90
8557;DHT22;4316;53.840;10.762;2024-03-23T01:45:31;7.10;3.30
8557;DHT22;4316;53.840;10.762;2024-03-23T01:47:57;7.10;2.40
8557;DHT22;4316;53.840;10.762;2024-03-23T01:50:23;7.10;2.70
8557;DHT22;4316;53.840;10.762;2024-03-23T01:52:52;7.10;2.00
8557;DHT22;4316;53.840;10.762;2024-03-23T01:55:18;7.10;1.30
8557;DHT22;4316;53.840;10.762;2024-03-23T01:57:43;7.00;2.30
8557;DHT22;4316;53.840;10.762;2024-03-23T02:00:10;7.10;1.60
8557;DHT22;4316;53.840;10.762;2024-03-23T02:02:45;7.10;1.00
8557;DHT22;4316;53.840;10.762;2024-03-23T02:05:12;6.90;1.00
8557;DHT22;4316;53.840;10.762;2024-03-23T02:07:42;6.90;2.20
8557;DHT22;4316;53.840;10.762;2024-03-23T02:10:09;6.90;4.80
8557;DHT22;4316;53.840;10.762;2024-03-23T02:12:44;6.80;2.60
8557;DHT22;4316;53.840;10.762;2024-03-23T02:15:09;6.80;6.30
8557;DHT22;4316;53.840;10.762;2024-03-23T02:17:36;6.90;8.70
8557;DHT22;4316;53.840;10.762;2024-03-23T02:20:03;6.90;7.20
8557;DHT22;4316;53.840;10.762;2024-03-23T02:22:38;7.00;4.80
8557;DHT22;4316;53.840;10.762;2024-03-23T02:25:05;7.00;4.60
8557;DHT22;4316;53.840;10.762;2024-03-23T02:27:31;6.90;2.10
8557;DHT22;4316;53.840;10.762;2024-03-23T02:29:57;6.80;2.80
8557;DHT22;4316;53.840;10.762;2024-03-23T02:32:23;6.80;3.70
8557;DHT22;4316;53.840;10.762;2024-03-23T02:34:49;6.70;3.40
8557;DHT22;4316;53.840;10.762;2024-03-23T02:37:14;6.70;4.10
8557;DHT22;4316;53.840;10.762;2024-03-23T02:39:40;6.70;4.60
8557;DHT22;4316;53.840;10.762;2024-03-23T02:42:06;6.70;4.90
8557;DHT22;4316;53.840;10.762;2024-03-23T02:44:32;6.70;6.60
8557;DHT22;4316;53.840;10.762;2024-03-23T02:46:57;6.70;5.40
8557;DHT22;4316;53.840;10.762;2024-03-23T02:49:23;6.70;4.20
8557;DHT22;4316;53.840;10.762;2024-03-23T02:51:49;6.70;9.10
8557;DHT22;4316;53.840;10.762;2024-03-23T02:54:15;6.70;5.40
8557;DHT22;4316;53.840;10.762;2024-03-23T02:56:40;6.70;5.40
8557;DHT22;4316;53.840;10.762;2024-03-23T02:59:06;6.80;5.30
8557;DHT22;4316;53.840;10.762;2024-03-23T03:01:32;6.80;5.20
8557;DHT22;4316;53.840;10.762;2024-03-23T03:04:00;6.80;2.90
8557;DHT22;4316;53.840;10.762;2024-03-23T03:06:27;6.60;1.00
8557;DHT22;4316;53.840;10.762;2024-03-23T03:08:52;6.50;2.60
8557;DHT22;4316;53.840;10.762;2024-03-23T03:11:18;6.50;4.30
8557;DHT22;4316;53.840;10.762;2024-03-23T03:13:44;6.50;5.00
8557;DHT22;4316;53.840;10.762;2024-03-23T03:16:11;6.60;5.70
8557;DHT22;4316;53.840;10.762;2024-03-23T03:18:37;6.60;2.40
8557;DHT22;4316;53.840;10.762;2024-03-23T03:21:03;6.60;2.50
8557;DHT22;4316;53.840;10.762;2024-03-23T03:23:31;6.60;1.00
8557;DHT22;4316;53.840;10.762;2024-03-23T03:25:56;6.60;2.80
8557;DHT22;4316;53.840;10.762;2024-03-23T03:28:23;6.60;1.60
8557;DHT22;4316;53.840;10.762;2024-03-23T03:30:49;6.60;1.00
8557;DHT22;4316;53.840;10.762;2024-03-23T03:33:15;6.60;1.00
8557;DHT22;4316;53.840;10.762;2024-03-23T03:35:40;6.60;1.00
8557;DHT22;4316;53.840;10.762;2024-03-23T03:38:06;6.60;1.40
8557;DHT22;4316;53.840;10.762;2024-03-23T03:40:32;6.60;1.10
8557;DHT22;4316;53.840;10.762;2024-03-23T03:42:58;6.60;1.00
8557;DHT22;4316;53.840;10.762;2024-03-23T03:45:23;6.60;1.00
8557;DHT22;4316;53.840;10.762;2024-03-23T03:47:49;6.60;1.00
8557;DHT22;4316;53.840;10.762;2024-03-23T03:50:15;6.60;1.00
8557;DHT22;4316;53.840;10.762;2024-03-23T03:52:41;6.60;1.00
8557;DHT22;4316;53.840;10.762;2024-03-23T03:55:13;6.50;1.00
8557;DHT22;4316;53.840;10.762;2024-03-23T03:57:39;6.50;1.00
8557;DHT22;4316;53.840;10.762;2024-03-23T04:00:06;6.50;1.00
8557;DHT22;4316;53.840;10.762;2024-03-23T04:02:32;6.50;1.00
8557;DHT22;4316;53.840;10.762;2024-03-23T04:04:58;6.50;1.00
8557;DHT22;4316;53.840;10.762;2024-03-23T04:07:24;6.40;1.00
8557;DHT22;4316;53.840;10.762;2024-03-23T04:09:50;6.40;1.00
8557;DHT22;4316;53.840;10.762;2024-03-23T04:12:16;6.40;1.00
8557;DHT22;4316;53.840;10.762;2024-03-23T04:14:41;6.40;1.00
8557;DHT22;4316;53.840;10.762;2024-03-23T04:17:07;6.40;1.00
8557;DHT22;4316;53.840;10.762;2024-03-23T04:19:33;6.40;1.00
8557;DHT22;4316;53.840;10.762;2024-03-23T04:21:59;6.40;1.00
8557;DHT22;4316;53.840;10.762;2024-03-23T04:24:25;6.30;1.00
8557;DHT22;4316;53.840;10.762;2024-03-23T04:26:52;6.30;1.00
8557;DHT22;4316;53.840;10.762;2024-03-23T04:29:18;6.30;1.00
8557;DHT22;4316;53.840;10.762;2024-03-23T04:31:43;6.30;1.00
8557;DHT22;4316;53.840;10.762;2024-03-23T04:34:10;6.20;1.00
8557;DHT22;4316;53.840;10.762;2024-03-23T04:36:35;6.20;1.00
8557;DHT22;4316;53.840;10.762;2024-03-23T04:39:01;6.20;1.00
8557;DHT22;4316;53.840;10.762;2024-03-23T04:41:27;6.20;1.00
8557;DHT22;4316;53.840;10.762;2024-03-23T04:43:53;6.10;1.00
8557;DHT22;4316;53.840;10.762;2024-03-23T04:46:18;6.10;1.00
8557;DHT22;4316;53.840;10.762;2024-03-23T04:48:46;6.10;1.00
8557;DHT22;4316;53.840;10.762;2024-03-23T04:51:25;6.10;1.00
8557;DHT22;4316;53.840;10.762;2024-03-23T04:53:51;6.10;1.00
8557;DHT22;4316;53.840;10.762;2024-03-23T04:56:17;6.10;1.00
8557;DHT22;4316;53.840;10.762;2024-03-23T04:58:44;6.10;1.00
8557;DHT22;4316;53.840;10.762;2024-03-23T05:01:10;6.10;1.00
8557;DHT22;4316;53.840;10.762;2024-03-23T05:03:37;6.10;1.00
8557;DHT22;4316;53.840;10.762;2024-03-23T05:06:03;6.00;1.00
8557;DHT22;4316;53.840;10.762;2024-03-23T05:08:29;6.10;1.00
8557;DHT22;4316;53.840;10.762;2024-03-23T05:10:55;6.00;1.00
8557;DHT22;4316;53.840;10.762;2024-03-23T05:13:21;6.00;1.00
8557;DHT22;4316;53.840;10.762;2024-03-23T05:15:54;6.00;1.00
8557;DHT22;4316;53.840;10.762;2024-03-23T05:18:20;6.00;1.00
8557;DHT22;4316;53.840;10.762;2024-03-23T05:20:46;5.90;1.30
8557;DHT22;4316;53.840;10.762;2024-03-23T05:23:12;6.00;1.90
8557;DHT22;4316;53.840;10.762;2024-03-23T05:25:38;5.90;1.50
8557;DHT22;4316;53.840;10.762;2024-03-23T05:28:04;5.90;2.10
8557;DHT22;4316;53.840;10.762;2024-03-23T05:30:31;5.90;2.60
8557;DHT22;4316;53.840;10.762;2024-03-23T05:32:56;6.00;3.80
8557;DHT22;4316;53.840;10.762;2024-03-23T05:35:22;6.00;3.60
8557;DHT22;4316;53.840;10.762;2024-03-23T05:37:48;6.00;4.70
8557;DHT22;4316;53.840;10.762;2024-03-23T05:40:14;6.00;4.20
8557;DHT22;4316;53.840;10.762;2024-03-23T05:42:41;6.00;4.40
8557;DHT22;4316;53.840;10.762;2024-03-23T05:45:07;6.00;6.00
8557;DHT22;4316;53.840;10.762;2024-03-23T05:47:33;6.10;4.90
8557;DHT22;4316;53.840;10.762;2024-03-23T05:49:59;6.10;7.50
8557;DHT22;4316;53.840;10.762;2024-03-23T05:52:25;6.10;6.10
8557;DHT22;4316;53.840;10.762;2024-03-23T05:54:51;6.10;8.20
8557;DHT22;4316;53.840;10.762;2024-03-23T05:57:17;6.10;6.10
8557;DHT22;4316;53.840;10.762;2024-03-23T05:59:44;6.10;5.40
8557;DHT22;4316;53.840;10.762;2024-03-23T06:02:10;6.20;7.00
8557;DHT22;4316;53.840;10.762;2024-03-23T06:04:36;6.20;8.60
8557;DHT22;4316;53.840;10.762;2024-03-23T06:07:03;6.20;9.20
8557;DHT22;4316;53.840;10.762;2024-03-23T06:09:28;6.20;8.90
8557;DHT22;4316;53.840;10.762;2024-03-23T06:11:57;6.10;7.50
8557;DHT22;4316;53.840;10.762;2024-03-23T06:14:22;6.10;8.20
8557;DHT22;4316;53.840;10.762;2024-03-23T06:16:48;6.10;9.40
8557;DHT22;4316;53.840;10.762;2024-03-23T06:19:14;6.20;11.20
8557;DHT22;4316;53.840;10.762;2024-03-23T06:21:43;6.20;11.60
8557;DHT22;4316;53.840;10.762;2024-03-23T06:24:11;6.20;12.00
8557;DHT22;4316;53.840;10.762;2024-03-23T06:26:36;6.30;12.70
8557;DHT22;4316;53.840;10.762;2024-03-23T06:29:02;6.40;12.30
8557;DHT22;4316;53.840;10.762;2024-03-23T06:31:28;6.70;12.00
8557;DHT22;4316;53.840;10.762;2024-03-23T06:33:55;6.50;10.20
8557;DHT22;4316;53.840;10.762;2024-03-23T06:36:21;6.60;9.00
8557;DHT22;4316;53.840;10.762;2024-03-23T06:38:47;6.60;9.00
8557;DHT22;4316;53.840;10.762;2024-03-23T06:41:12;6.70;8.60
8557;DHT22;4316;53.840;10.762;2024-03-23T06:43:38;6.70;7.70
8557;DHT22;4316;53.840;10.762;2024-03-23T06:46:05;6.70;6.40
8557;DHT22;4316;53.840;10.762;2024-03-23T06:48:31;6.70;7.40
8557;DHT22;4316;53.840;10.762;2024-03-23T06:50:57;6.90;9.40
8557;DHT22;4316;53.840;10.762;2024-03-23T06:53:23;6.90;7.90
8557;DHT22;4316;53.840;10.762;2024-03-23T06:55:53;7.00;10.10
8557;DHT22;4316;53.840;10.762;2024-03-23T06:58:20;7.10;9.40
8557;DHT22;4316;53.840;10.762;2024-03-23T07:00:46;7.20;5.40
8557;DHT22;4316;53.840;10.762;2024-03-23T07:03:11;7.30;4.50
8557;DHT22;4316;53.840;10.762;2024-03-23T07:05:38;7.40;3.90
8557;DHT22;4316;53.840;10.762;2024-03-23T07:08:04;7.60;6.10
8557;DHT22;4316;53.840;10.762;2024-03-23T07:10:30;7.90;3.40
8557;DHT22;4316;53.840;10.762;2024-03-23T07:12:55;8.10;1.00
8557;DHT22;4316;53.840;10.762;2024-03-23T07:15:21;8.10;1.00
8557;DHT22;4316;53.840;10.762;2024-03-23T07:17:47;8.20;1.00
8557;DHT22;4316;53.840;10.762;2024-03-23T07:20:14;8.40;1.00
8557;DHT22;4316;53.840;10.762;2024-03-23T07:22:39;8.50;1.00
8557;DHT22;4316;53.840;10.762;2024-03-23T07:25:05;8.50;1.00
8557;DHT22;4316;53.840;10.762;2024-03-23T07:27:32;8.60;1.00
8557;DHT22;4316;53.840;10.762;2024-03-23T07:29:58;8.50;1.00
8557;DHT22;4316;53.840;10.762;2024-03-23T07:32:23;8.60;1.00
8557;DHT22;4316;53.840;10.762;2024-03-23T07:34:49;8.60;1.00
8557;DHT22;4316;53.840;10.762;2024-03-23T07:37:15;8.60;1.00
8557;DHT22;4316;53.840;10.762;2024-03-23T07:39:41;8.80;1.00
8557;DHT22;4316;53.840;10.762;2024-03-23T07:42:06;8.90;1.00
8557;DHT22;4316;53.840;10.762;2024-03-23T07:44:32;8.90;1.00
8557;DHT22;4316;53.840;10.762;2024-03-23T07:47:01;8.80;1.00
8557;DHT22;4316;53.840;10.762;2024-03-23T07:49:27;8.90;1.00
8557;DHT22;4316;53.840;10.762;2024-03-23T07:51:53;8.80;1.00
8557;DHT22;4316;53.840;10.762;2024-03-23T07:54:19;8.80;1.00
8557;DHT22;4316;53.840;10.762;2024-03-23T07:56:45;8.80;1.00
8557;DHT22;4316;53.840;10.762;2024-03-23T07:59:11;8.70;1.00
8557;DHT22;4316;53.840;10.762;2024-03-23T08:01:36;8.70;1.00
8557;DHT22;4316;53.840;10.762;2024-03-23T08:04:02;8.80;1.00
8557;DHT22;4316;53.840;10.762;2024-03-23T08:06:28;8.80;1.00
8557;DHT22;4316;53.840;10.762;2024-03-23T08:08:57;8.90;1.00
8557;DHT22;4316;53.840;10.762;2024-03-23T08:11:27;9.00;1.00
8557;DHT22;4316;53.840;10.762;2024-03-23T08:13:53;9.10;1.00
8557;DHT22;4316;53.840;10.762;2024-03-23T08:16:19;9.30;1.00
8557;DHT22;4316;53.840;10.762;2024-03-23T08:18:45;9.20;1.00
8557;DHT22;4316;53.840;10.762;2024-03-23T08:21:11;9.30;1.00
8557;DHT22;4316;53.840;10.762;2024-03-23T08:23:37;9.50;1.00
8557;DHT22;4316;53.840;10.762;2024-03-23T08:26:05;9.70;1.00
8557;DHT22;4316;53.840;10.762;2024-03-23T08:28:32;10.00;1.00
8557;DHT22;4316;53.840;10.762;2024-03-23T08:31:01;10.10;1.00
8557;DHT22;4316;53.840;10.762;2024-03-23T08:33:28;10.00;1.00
8557;DHT22;4316;53.840;10.762;2024-03-23T08:35:54;10.30;1.00
8557;DHT22;4316;53.840;10.762;2024-03-23T08:38:21;10.30;1.00
8557;DHT22;4316;53.840;10.762;2024-03-23T08:40:47;10.70;1.00
8557;DHT22;4316;53.840;10.762;2024-03-23T08:43:13;11.00;1.00
8557;DHT22;4316;53.840;10.762;2024-03-23T08:45:39;11.10;1.00
8557;DHT22;4316;53.840;10.762;2024-03-23T08:48:05;11.30;1.00
8557;DHT22;4316;53.840;10.762;2024-03-23T08:50:31;11.40;1.00
8557;DHT22;4316;53.840;10.762;2024-03-23T08:52:57;11.40;1.00
8557;DHT22;4316;53.840;10.762;2024-03-23T08:55:22;11.40;1.00
8557;DHT22;4316;53.840;10.762;2024-03-23T08:57:49;11.30;1.00
8557;DHT22;4316;53.840;10.762;2024-03-23T09:00:15;11.20;1.00
8557;DHT22;4316;53.840;10.762;2024-03-23T09:02:40;11.30;1.00
8557;DHT22;4316;53.840;10.762;2024-03-23T09:05:06;11.50;1.00
8557;DHT22;4316;53.840;10.762;2024-03-23T09:07:32;11.50;1.00
8557;DHT22;4316;53.840;10.762;2024-03-23T09:09:58;11.20;1.00
8557;DHT22;4316;53.840;10.762;2024-03-23T09:12:24;11.00;1.00
8557;DHT22;4316;53.840;10.762;2024-03-23T09:14:50;10.80;1.00
8557;DHT22;4316;53.840;10.762;2024-03-23T09:17:16;10.80;1.00
8557;DHT22;4316;53.840;10.762;2024-03-23T09:19:43;11.20;1.00
8557;DHT22;4316;53.840;10.762;2024-03-23T09:22:09;11.50;99.90
8557;DHT22;4316;53.840;10.762;2024-03-23T09:24:35;11.90;99.90
8557;DHT22;4316;53.840;10.762;2024-03-23T09:27:01;11.80;99.90
8557;DHT22;4316;53.840;10.762;2024-03-23T09:29:28;11.80;99.90
8557;DHT22;4316;53.840;10.762;2024-03-23T09:31:54;12.00;99.90
8557;DHT22;4316;53.840;10.762;2024-03-23T09:34:20;12.20;99.90
8557;DHT22;4316;53.840;10.762;2024-03-23T09:36:46;12.20;99.90
8557;DHT22;4316;53.840;10.762;2024-03-23T09:39:13;12.40;99.90
8557;DHT22;4316;53.840;10.762;2024-03-23T09:41:39;12.90;99.90
8557;DHT22;4316;53.840;10.762;2024-03-23T09:44:05;13.30;99.90
8557;DHT22;4316;53.840;10.762;2024-03-23T09:46:34;13.70;99.90
8557;DHT22;4316;53.840;10.762;2024-03-23T09:49:02;13.70;99.90
8557;DHT22;4316;53.840;10.762;2024-03-23T09:51:30;13.80;99.90
8557;DHT22;4316;53.840;10.762;2024-03-23T09:53:57;13.10;99.90
8557;DHT22;4316;53.840;10.762;2024-03-23T09:56:23;12.70;99.90
8557;DHT22;4316;53.840;10.762;2024-03-23T09:58:49;12.70;99.90
8557;DHT22;4316;53.840;10.762;2024-03-23T10:01:15;12.50;99.90
8557;DHT22;4316;53.840;10.762;2024-03-23T10:03:45;12.20;99.90
8557;DHT22;4316;53.840;10.762;2024-03-23T10:06:11;11.70;99.90
8557;DHT22;4316;53.840;10.762;2024-03-23T10:08:37;11.90;99.90
8557;DHT22;4316;53.840;10.762;2024-03-23T10:11:21;12.30;99.90
8557;DHT22;4316;53.840;10.762;2024-03-23T10:13:47;12.60;25.20
8557;DHT22;4316;53.840;10.762;2024-03-23T10:16:23;12.90;1.00
8557;DHT22;4316;53.840;10.762;2024-03-23T10:18:50;12.80;1.00
8557;DHT22;4316;53.840;10.762;2024-03-23T10:21:16;12.50;1.00
8557;DHT22;4316;53.840;10.762;2024-03-23T10:23:43;12.20;46.80
8557;DHT22;4316;53.840;10.762;2024-03-23T10:26:16;11.90;25.00
8557;DHT22;4316;53.840;10.762;2024-03-23T10:28:58;11.60;99.90
8557;DHT22;4316;53.840;10.762;2024-03-23T10:31:27;11.30;99.90
8557;DHT22;4316;53.840;10.762;2024-03-23T10:33:54;11.10;99.90
8557;DHT22;4316;53.840;10.762;2024-03-23T10:36:21;10.90;99.90
8557;DHT22;4316;53.840;10.762;2024-03-23T10:38:49;10.70;99.90
8557;DHT22;4316;53.840;10.762;2024-03-23T10:41:15;10.80;99.90
8557;DHT22;4316;53.840;10.762;2024-03-23T10:43:43;11.20;99.90
8557;DHT22;4316;53.840;10.762;2024-03-23T10:46:09;11.40;99.90
8557;DHT22;4316;53.840;10.762;2024-03-23T10:48:35;11.60;99.90
8557;DHT22;4316;53.840;10.762;2024-03-23T10:51:01;11.90;88.50
8557;DHT22;4316;53.840;10.762;2024-03-23T10:53:28;12.10;1.00
8557;DHT22;4316;53.840;10.762;2024-03-23T10:55:55;12.40;1.00
8557;DHT22;4316;53.840;10.762;2024-03-23T10:58:31;12.40;1.00
8557;DHT22;4316;53.840;10.762;2024-03-23T11:00:57;12.10;1.00
8557;DHT22;4316;53.840;10.762;2024-03-23T11:05:56;11.30;1.00
8557;DHT22;4316;53.840;10.762;2024-03-23T11:08:36;11.10;25.50
8557;DHT22;4316;53.840;10.762;2024-03-23T11:11:21;11.20;80.10
8557;DHT22;4316;53.840;10.762;2024-03-23T11:13:52;11.30;47.50
8557;DHT22;4316;53.840;10.762;2024-03-23T11:16:28;11.30;1.00
8557;DHT22;4316;53.840;10.762;2024-03-23T11:19:36;11.70;15.90
8557;DHT22;4316;53.840;10.762;2024-03-23T11:22:02;12.10;1.00
8557;DHT22;4316;53.840;10.762;2024-03-23T11:24:29;12.40;99.90
8557;DHT22;4316;53.840;10.762;2024-03-23T11:26:54;12.50;1.00
8557;DHT22;4316;53.840;10.762;2024-03-23T11:29:20;12.40;1.00
8557;DHT22;4316;53.840;10.762;2024-03-23T11:31:53;12.50;1.00
8557;DHT22;4316;53.840;10.762;2024-03-23T11:34:19;12.90;1.00
8557;DHT22;4316;53.840;10.762;2024-03-23T11:36:46;13.10;1.00
8557;DHT22;4316;53.840;10.762;2024-03-23T11:41:48;12.80;13.60
8557;DHT22;4316;53.840;10.762;2024-03-23T11:44:25;12.90;99.90
8557;DHT22;4316;53.840;10.762;2024-03-23T11:46:52;13.10;99.90
8557;DHT22;4316;53.840;10.762;2024-03-23T11:49:28;13.40;99.90
8557;DHT22;4316;53.840;10.762;2024-03-23T11:51:57;13.60;99.90
8557;DHT22;4316;53.840;10.762;2024-03-23T11:54:24;13.70;99.90
8557;DHT22;4316;53.840;10.762;2024-03-23T11:57:01;13.40;49.40
8557;DHT22;4316;53.840;10.762;2024-03-23T11:59:35;13.00;99.90
8557;DHT22;4316;53.840;10.762;2024-03-23T12:02:09;12.90;99.90
8557;DHT22;4316;53.840;10.762;2024-03-23T12:04:37;12.80;99.90
8557;DHT22;4316;53.840;10.762;2024-03-23T12:09:44;12.90;99.90
8557;DHT22;4316;53.840;10.762;2024-03-23T12:12:14;13.30;99.90
8557;DHT22;4316;53.840;10.762;2024-03-23T12:14:44;13.30;99.90
8557;DHT22;4316;53.840;10.762;2024-03-23T12:17:14;13.20;99.90
8557;DHT22;4316;53.840;10.762;2024-03-23T12:19:41;13.20;99.90
8557;DHT22;4316;53.840;10.762;2024-03-23T12:22:11;13.10;99.90
8557;DHT22;4316;53.840;10.762;2024-03-23T12:24:37;13.00;99.90
8557;DHT22;4316;53.840;10.762;2024-03-23T12:27:05;12.90;99.90
8557;DHT22;4316;53.840;10.762;2024-03-23T12:29:31;12.80;99.90
8557;DHT22;4316;53.840;10.762;2024-03-23T12:32:01;12.40;99.90
8557;DHT22;4316;53.840;10.762;2024-03-23T12:34:28;12.30;1.00
8557;DHT22;4316;53.840;10.762;2024-03-23T12:36:55;12.20;1.00
8557;DHT22;4316;53.840;10.762;2024-03-23T12:39:20;12.40;99.90
8557;DHT22;4316;53.840;10.762;2024-03-23T12:41:47;12.40;99.90
8557;DHT22;4316;53.840;10.762;2024-03-23T12:44:13;12.20;1.30
8557;DHT22;4316;53.840;10.762;2024-03-23T12:46:44;12.10;99.90
8557;DHT22;4316;53.840;10.762;2024-03-23T12:49:10;12.30;99.90
8557;DHT22;4316;53.840;10.762;2024-03-23T12:51:36;12.30;99.90
8557;DHT22;4316;53.840;10.762;2024-03-23T12:54:02;12.20;99.90
8557;DHT22;4316;53.840;10.762;2024-03-23T12:56:28;12.20;1.00
8557;DHT22;4316;53.840;10.762;2024-03-23T12:58:55;12.00;1.00
8557;DHT22;4316;53.840;10.762;2024-03-23T13:01:23;11.60;99.90
8557;DHT22;4316;53.840;10.762;2024-03-23T13:03:52;11.10;1.00
8557;DHT22;4316;53.840;10.762;2024-03-23T13:06:19;10.70;1.00
8557;DHT22;4316;53.840;10.762;2024-03-23T13:08:45;10.50;1.00
8557;DHT22;4316;53.840;10.762;2024-03-23T13:11:11;10.20;1.00
8557;DHT22;4316;53.840;10.762;2024-03-23T13:13:38;10.00;1.00
8557;DHT22;4316;53.840;10.762;2024-03-23T13:16:05;10.00;1.00
8557;DHT22;4316;53.840;10.762;2024-03-23T13:18:31;10.00;1.00
8557;DHT22;4316;53.840;10.762;2024-03-23T13:20:58;10.00;1.00
8557;DHT22;4316;53.840;10.762;2024-03-23T13:23:24;10.00;1.00
8557;DHT22;4316;53.840;10.762;2024-03-23T13:25:54;9.90;1.00
8557;DHT22;4316;53.840;10.762;2024-03-23T13:28:24;9.90;1.00
8557;DHT22;4316;53.840;10.762;2024-03-23T13:30:53;10.20;1.00
8557;DHT22;4316;53.840;10.762;2024-03-23T13:33:19;10.30;1.00
8557;DHT22;4316;53.840;10.762;2024-03-23T13:38:17;10.30;34.60
8557;DHT22;4316;53.840;10.762;2024-03-23T13:43:15;10.30;90.50
8557;DHT22;4316;53.840;10.762;2024-03-23T13:45:41;10.30;27.40
8557;DHT22;4316;53.840;10.762;2024-03-23T13:48:07;10.20;88.40
8557;DHT22;4316;53.840;10.762;2024-03-23T13:50:33;10.20;99.90
8557;DHT22;4316;53.840;10.762;2024-03-23T13:53:00;10.20;99.90
8557;DHT22;4316;53.840;10.762;2024-03-23T13:55:26;10.50;99.90
8557;DHT22;4316;53.840;10.762;2024-03-23T13:57:51;10.60;99.90
8557;DHT22;4316;53.840;10.762;2024-03-23T14:00:18;10.60;99.90
8557;DHT22;4316;53.840;10.762;2024-03-23T14:02:46;10.70;99.90
8557;DHT22;4316;53.840;10.762;2024-03-23T14:05:11;10.80;99.90
8557;DHT22;4316;53.840;10.762;2024-03-23T14:07:37;10.80;6.20
8557;DHT22;4316;53.840;10.762;2024-03-23T14:10:04;10.80;1.00
8557;DHT22;4316;53.840;10.762;2024-03-23T14:12:32;10.80;1.00
8557;DHT22;4316;53.840;10.762;2024-03-23T14:14:58;10.70;1.00
8557;DHT22;4316;53.840;10.762;2024-03-23T14:17:24;10.50;1.00
8557;DHT22;4316;53.840;10.762;2024-03-23T14:19:51;10.40;19.50
8557;DHT22;4316;53.840;10.762;2024-03-23T14:22:17;10.20;11.50
8557;DHT22;4316;53.840;10.762;2024-03-23T14:24:45;9.50;96.20
8557;DHT22;4316;53.840;10.762;2024-03-23T14:27:11;9.00;99.90
8557;DHT22;4316;53.840;10.762;2024-03-23T14:29:48;8.80;99.90
8557;DHT22;4316;53.840;10.762;2024-03-23T14:32:14;8.70;99.90
8557;DHT22;4316;53.840;10.762;2024-03-23T14:34:41;8.70;99.90
8557;DHT22;4316;53.840;10.762;2024-03-23T14:37:06;8.70;99.90
8557;DHT22;4316;53.840;10.762;2024-03-23T14:39:33;8.90;99.90
8557;DHT22;4316;53.840;10.762;2024-03-23T14:42:05;9.20;99.90
8557;DHT22;4316;53.840;10.762;2024-03-23T14:44:32;9.50;99.90
8557;DHT22;4316;53.840;10.762;2024-03-23T14:46:57;9.80;99.90
8557;DHT22;4316;53.840;10.762;2024-03-23T14:49:23;9.90;98.30
8557;DHT22;4316;53.840;10.762;2024-03-23T14:51:50;10.00;90.40
8557;DHT22;4316;53.840;10.762;2024-03-23T14:54:15;10.10;80.20
8557;DHT22;4316;53.840;10.762;2024-03-23T14:56:41;10.10;8.40
8557;DHT22;4316;53.840;10.762;2024-03-23T14:59:07;10.10;28.00
8557;DHT22;4316;53.840;10.762;2024-03-23T15:01:33;9.90;65.70
8557;DHT22;4316;53.840;10.762;2024-03-23T15:04:00;9.90;99.90
8557;DHT22;4316;53.840;10.762;2024-03-23T15:06:25;9.80;99.90
8557;DHT22;4316;53.840;10.762;2024-03-23T15:08:51;9.70;99.90
8557;DHT22;4316;53.840;10.762;2024-03-23T15:11:17;9.60;99.90
8557;DHT22;4316;53.840;10.762;2024-03-23T15:13:45;9.50;99.90
8557;DHT22;4316;53.840;10.762;2024-03-23T15:16:17;9.50;99.90
8557;DHT22;4316;53.840;10.762;2024-03-23T15:18:46;9.40;99.90
8557;DHT22;4316;53.840;10.762;2024-03-23T15:21:11;9.40;99.90
8557;DHT22;4316;53.840;10.762;2024-03-23T15:23:38;9.30;94.00
8557;DHT22;4316;53.840;10.762;2024-03-23T15:26:04;9.30;99.90
8557;DHT22;4316;53.840;10.762;2024-03-23T15:28:31;9.40;98.90
8557;DHT22;4316;53.840;10.762;2024-03-23T15:31:07;9.40;75.40
8557;DHT22;4316;53.840;10.762;2024-03-23T15:33:35;9.30;75.10
8557;DHT22;4316;53.840;10.762;2024-03-23T15:36:02;9.30;99.90
8557;DHT22;4316;53.840;10.762;2024-03-23T15:38:29;9.30;99.90
8557;DHT22;4316;53.840;10.762;2024-03-23T15:40:55;9.50;99.90
8557;DHT22;4316;53.840;10.762;2024-03-23T15:43:21;9.50;99.90
8557;DHT22;4316;53.840;10.762;2024-03-23T15:48:22;9.40;99.90
8557;DHT22;4316;53.840;10.762;2024-03-23T15:50:52;9.40;99.90
8557;DHT22;4316;53.840;10.762;2024-03-23T15:53:22;9.30;99.90
8557;DHT22;4316;53.840;10.762;2024-03-23T15:55:58;9.20;99.90
8557;DHT22;4316;53.840;10.762;2024-03-23T15:58:25;9.20;99.90
8557;DHT22;4316;53.840;10.762;2024-03-23T16:00:58;9.20;99.90
8557;DHT22;4316;53.840;10.762;2024-03-23T16:03:24;9.30;99.90
8557;DHT22;4316;53.840;10.762;2024-03-23T16:05:54;9.20;99.90
8557;DHT22;4316;53.840;10.762;2024-03-23T16:08:20;9.30;99.90
8557;DHT22;4316;53.840;10.762;2024-03-23T16:10:46;9.40;99.90
8557;DHT22;4316;53.840;10.762;2024-03-23T16:13:12;9.50;99.90
8557;DHT22;4316;53.840;10.762;2024-03-23T16:15:42;9.60;99.90
8557;DHT22;4316;53.840;10.762;2024-03-23T16:18:08;9.50;99.90
8557;DHT22;4316;53.840;10.762;2024-03-23T16:20:33;9.50;99.90
8557;DHT22;4316;53.840;10.762;2024-03-23T16:23:00;9.30;99.90
8557;DHT22;4316;53.840;10.762;2024-03-23T16:25:29;9.20;99.90
8557;DHT22;4316;53.840;10.762;2024-03-23T16:27:55;9.10;99.90
8557;DHT22;4316;53.840;10.762;2024-03-23T16:30:21;9.10;99.90
8557;DHT22;4316;53.840;10.762;2024-03-23T16:32:47;9.00;99.90
8557;DHT22;4316;53.840;10.762;2024-03-23T16:35:13;8.90;99.90
8557;DHT22;4316;53.840;10.762;2024-03-23T16:37:39;8.80;99.90
8557;DHT22;4316;53.840;10.762;2024-03-23T16:40:06;8.80;99.90
8557;DHT22;4316;53.840;10.762;2024-03-23T16:42:33;8.70;99.90
8557;DHT22;4316;53.840;10.762;2024-03-23T16:44:59;8.60;99.90
8557;DHT22;4316;53.840;10.762;2024-03-23T16:47:25;8.60;99.90
8557;DHT22;4316;53.840;10.762;2024-03-23T16:49:53;8.50;99.90
8557;DHT22;4316;53.840;10.762;2024-03-23T16:52:19;8.50;99.90
8557;DHT22;4316;53.840;10.762;2024-03-23T16:54:44;8.40;99.90
8557;DHT22;4316;53.840;10.762;2024-03-23T16:57:10;8.40;99.90
8557;DHT22;4316;53.840;10.762;2024-03-23T16:59:36;8.30;99.90
8557;DHT22;4316;53.840;10.762;2024-03-23T17:02:02;8.30;99.90
8557;DHT22;4316;53.840;10.762;2024-03-23T17:04:27;8.10;1.00
8557;DHT22;4316;53.840;10.762;2024-03-23T17:06:54;8.10;1.00
8557;DHT22;4316;53.840;10.762;2024-03-23T17:09:22;7.90;1.00
8557;DHT22;4316;53.840;10.762;2024-03-23T17:11:48;7.80;1.00